sensor_id;sensor_type;location;lat;lon;timestamp;P1;durP1;ratioP1;P2;durP2;ratioP2
32329;SDS011;18807;52.434;13.238;2024-02-21T00:00:29;10.95;;;5.07;;
32329;SDS011;18807;52.434;13.238;2024-02-21T00:08:05;9.70;;;4.50;;
32329;SDS011;18807;52.434;13.238;2024-02-21T00:15:40;16.40;;;4.93;;
32329;SDS011;18807;52.434;13.238;2024-02-21T00:23:15;12.07;;;4.90;;
32329;SDS011;18807;52.434;13.238;2024-02-21T00:30:49;11.10;;;4.90;;
32329;SDS011;18807;52.434;13.238;2024-02-21T00:38:27;10.25;;;4.30;;
32329;SDS011;18807;52.434;13.238;2024-02-21T00:46:01;19.13;;;4.80;;
32329;SDS011;18807;52.434;13.238;2024-02-21T00:53:37;15.90;;;4.30;;
32329;SDS011;18807;52.434;13.238;2024-02-21T01:01:11;11.35;;;4.78;;
32329;SDS011;18807;52.434;13.238;2024-02-21T01:08:48;13.57;;;4.90;;
32329;SDS011;18807;52.434;13.238;2024-02-21T01:16:22;14.00;;;4.63;;
32329;SDS011;18807;52.434;13.238;2024-02-21T01:23:57;7.63;;;3.77;;
32329;SDS011;18807;52.434;13.238;2024-02-21T01:31:31;12.32;;;4.30;;
32329;SDS011;18807;52.434;13.238;2024-02-21T01:39:07;15.07;;;5.20;;
32329;SDS011;18807;52.434;13.238;2024-02-21T01:46:41;8.88;;;4.00;;
32329;SDS011;18807;52.434;13.238;2024-02-21T01:54:16;9.03;;;3.83;;
32329;SDS011;18807;52.434;13.238;2024-02-21T02:01:51;9.85;;;4.72;;
32329;SDS011;18807;52.434;13.238;2024-02-21T02:09:27;13.90;;;4.20;;
32329;SDS011;18807;52.434;13.238;2024-02-21T02:17:01;9.27;;;3.75;;
32329;SDS011;18807;52.434;13.238;2024-02-21T02:24:36;13.37;;;3.70;;
32329;SDS011;18807;52.434;13.238;2024-02-21T02:32:12;12.63;;;4.47;;
32329;SDS011;18807;52.434;13.238;2024-02-21T02:39:48;11.57;;;4.47;;
32329;SDS011;18807;52.434;13.238;2024-02-21T02:47:22;10.43;;;4.65;;
32329;SDS011;18807;52.434;13.238;2024-02-21T02:54:58;10.35;;;4.10;;
32329;SDS011;18807;52.434;13.238;2024-02-21T03:02:34;19.23;;;5.30;;
32329;SDS011;18807;52.434;13.238;2024-02-21T03:10:10;8.60;;;4.10;;
32329;SDS011;18807;52.434;13.238;2024-02-21T03:17:44;11.00;;;3.80;;
32329;SDS011;18807;52.434;13.238;2024-02-21T03:25:20;16.83;;;4.50;;
32329;SDS011;18807;52.434;13.238;2024-02-21T03:32:54;15.48;;;4.82;;
32329;SDS011;18807;52.434;13.238;2024-02-21T03:40:30;14.00;;;4.30;;
32329;SDS011;18807;52.434;13.238;2024-02-21T03:48:04;9.45;;;3.95;;
32329;SDS011;18807;52.434;13.238;2024-02-21T03:55:40;11.05;;;4.35;;
32329;SDS011;18807;52.434;13.238;2024-02-21T04:03:15;15.50;;;4.63;;
32329;SDS011;18807;52.434;13.238;2024-02-21T04:10:50;14.60;;;4.83;;
32329;SDS011;18807;52.434;13.238;2024-02-21T04:18:24;11.43;;;4.65;;
32329;SDS011;18807;52.434;13.238;2024-02-21T04:26:00;12.00;;;4.70;;
32329;SDS011;18807;52.434;13.238;2024-02-21T04:33:34;13.05;;;5.28;;
32329;SDS011;18807;52.434;13.238;2024-02-21T04:41:09;12.57;;;4.87;;
32329;SDS011;18807;52.434;13.238;2024-02-21T04:48:43;12.48;;;4.53;;
32329;SDS011;18807;52.434;13.238;2024-02-21T04:56:21;9.20;;;4.68;;
32329;SDS011;18807;52.434;13.238;2024-02-21T05:03:55;10.10;;;5.10;;
32329;SDS011;18807;52.434;13.238;2024-02-21T05:11:31;16.10;;;4.20;;
32329;SDS011;18807;52.434;13.238;2024-02-21T05:19:05;15.38;;;5.82;;
32329;SDS011;18807;52.434;13.238;2024-02-21T05:26:41;14.07;;;4.90;;
32329;SDS011;18807;52.434;13.238;2024-02-21T05:34:14;13.60;;;5.07;;
32329;SDS011;18807;52.434;13.238;2024-02-21T05:41:50;16.13;;;6.10;;
32329;SDS011;18807;52.434;13.238;2024-02-21T05:49:24;13.68;;;5.53;;
32329;SDS011;18807;52.434;13.238;2024-02-21T05:57:00;13.90;;;5.83;;
32329;SDS011;18807;52.434;13.238;2024-02-21T06:04:34;16.58;;;6.20;;
32329;SDS011;18807;52.434;13.238;2024-02-21T06:12:10;17.33;;;7.00;;
32329;SDS011;18807;52.434;13.238;2024-02-21T06:19:44;16.42;;;6.57;;
32329;SDS011;18807;52.434;13.238;2024-02-21T06:27:20;14.20;;;6.20;;
32329;SDS011;18807;52.434;13.238;2024-02-21T06:34:54;15.38;;;6.63;;
32329;SDS011;18807;52.434;13.238;2024-02-21T06:42:30;16.33;;;6.78;;
32329;SDS011;18807;52.434;13.238;2024-02-21T06:50:04;16.50;;;6.93;;
32329;SDS011;18807;52.434;13.238;2024-02-21T06:57:40;16.38;;;6.68;;
32329;SDS011;18807;52.434;13.238;2024-02-21T07:05:14;20.50;;;7.50;;
32329;SDS011;18807;52.434;13.238;2024-02-21T07:12:50;17.05;;;6.93;;
32329;SDS011;18807;52.434;13.238;2024-02-21T07:20:27;16.27;;;8.05;;
32329;SDS011;18807;52.434;13.238;2024-02-21T07:28:04;18.83;;;7.60;;
32329;SDS011;18807;52.434;13.238;2024-02-21T07:35:38;16.77;;;6.43;;
32329;SDS011;18807;52.434;13.238;2024-02-21T07:43:16;13.50;;;6.13;;
32329;SDS011;18807;52.434;13.238;2024-02-21T07:50:50;16.88;;;6.30;;
32329;SDS011;18807;52.434;13.238;2024-02-21T07:58:27;16.98;;;6.43;;
32329;SDS011;18807;52.434;13.238;2024-02-21T08:06:02;15.07;;;6.03;;
32329;SDS011;18807;52.434;13.238;2024-02-21T08:13:38;19.70;;;7.15;;
32329;SDS011;18807;52.434;13.238;2024-02-21T08:21:13;13.07;;;5.97;;
32329;SDS011;18807;52.434;13.238;2024-02-21T08:36:25;20.40;;;8.10;;
32329;SDS011;18807;52.434;13.238;2024-02-21T08:43:59;17.35;;;7.72;;
32329;SDS011;18807;52.434;13.238;2024-02-21T08:51:35;22.93;;;8.47;;
32329;SDS011;18807;52.434;13.238;2024-02-21T08:59:09;19.17;;;8.95;;
32329;SDS011;18807;52.434;13.238;2024-02-21T09:06:45;25.25;;;8.95;;
32329;SDS011;18807;52.434;13.238;2024-02-21T09:14:19;18.88;;;8.38;;
32329;SDS011;18807;52.434;13.238;2024-02-21T09:21:54;19.43;;;8.00;;
32329;SDS011;18807;52.434;13.238;2024-02-21T09:29:29;24.15;;;10.18;;
32329;SDS011;18807;52.434;13.238;2024-02-21T09:37:07;20.10;;;8.00;;
32329;SDS011;18807;52.434;13.238;2024-02-21T09:44:41;18.55;;;8.70;;
32329;SDS011;18807;52.434;13.238;2024-02-21T09:52:17;17.73;;;8.80;;
32329;SDS011;18807;52.434;13.238;2024-02-21T09:59:53;15.20;;;6.60;;
32329;SDS011;18807;52.434;13.238;2024-02-21T10:07:28;13.82;;;7.15;;
32329;SDS011;18807;52.434;13.238;2024-02-21T10:15:05;15.68;;;8.20;;
32329;SDS011;18807;52.434;13.238;2024-02-21T10:22:41;21.35;;;9.45;;
32329;SDS011;18807;52.434;13.238;2024-02-21T10:30:16;15.75;;;6.40;;
32329;SDS011;18807;52.434;13.238;2024-02-21T10:45:30;13.18;;;6.57;;
32329;SDS011;18807;52.434;13.238;2024-02-21T10:53:12;17.73;;;7.70;;
32329;SDS011;18807;52.434;13.238;2024-02-21T11:00:52;15.43;;;7.15;;
32329;SDS011;18807;52.434;13.238;2024-02-21T11:08:26;11.38;;;6.22;;
32329;SDS011;18807;52.434;13.238;2024-02-21T11:16:10;20.33;;;7.63;;
32329;SDS011;18807;52.434;13.238;2024-02-21T11:24:01;12.05;;;6.50;;
32329;SDS011;18807;52.434;13.238;2024-02-21T11:31:40;11.80;;;7.95;;
32329;SDS011;18807;52.434;13.238;2024-02-21T11:39:21;14.20;;;5.95;;
32329;SDS011;18807;52.434;13.238;2024-02-21T11:46:57;12.00;;;5.88;;
32329;SDS011;18807;52.434;13.238;2024-02-21T11:54:32;10.73;;;5.85;;
32329;SDS011;18807;52.434;13.238;2024-02-21T12:02:08;8.52;;;5.20;;
32329;SDS011;18807;52.434;13.238;2024-02-21T12:09:42;12.10;;;4.25;;
32329;SDS011;18807;52.434;13.238;2024-02-21T12:17:20;12.15;;;4.32;;
32329;SDS011;18807;52.434;13.238;2024-02-21T12:24:54;9.75;;;4.38;;
32329;SDS011;18807;52.434;13.238;2024-02-21T12:32:30;8.63;;;4.03;;
32329;SDS011;18807;52.434;13.238;2024-02-21T12:40:05;7.82;;;3.78;;
32329;SDS011;18807;52.434;13.238;2024-02-21T12:47:41;5.72;;;4.43;;
32329;SDS011;18807;52.434;13.238;2024-02-21T12:55:15;5.95;;;3.72;;
32329;SDS011;18807;52.434;13.238;2024-02-21T13:02:51;11.90;;;3.97;;
32329;SDS011;18807;52.434;13.238;2024-02-21T13:10:25;9.35;;;3.55;;
32329;SDS011;18807;52.434;13.238;2024-02-21T13:18:02;7.73;;;3.50;;
32329;SDS011;18807;52.434;13.238;2024-02-21T13:25:39;10.43;;;3.08;;
32329;SDS011;18807;52.434;13.238;2024-02-21T13:33:15;6.70;;;3.53;;
32329;SDS011;18807;52.434;13.238;2024-02-21T13:40:50;7.45;;;3.38;;
32329;SDS011;18807;52.434;13.238;2024-02-21T13:48:29;6.75;;;3.53;;
32329;SDS011;18807;52.434;13.238;2024-02-21T13:56:04;6.38;;;2.97;;
32329;SDS011;18807;52.434;13.238;2024-02-21T14:03:40;8.48;;;3.60;;
32329;SDS011;18807;52.434;13.238;2024-02-21T14:11:15;4.03;;;2.30;;
32329;SDS011;18807;52.434;13.238;2024-02-21T14:18:52;7.28;;;2.97;;
32329;SDS011;18807;52.434;13.238;2024-02-21T14:26:26;6.53;;;3.28;;
32329;SDS011;18807;52.434;13.238;2024-02-21T14:34:02;7.50;;;3.38;;
32329;SDS011;18807;52.434;13.238;2024-02-21T14:41:36;5.47;;;2.92;;
32329;SDS011;18807;52.434;13.238;2024-02-21T14:49:13;4.63;;;2.90;;
32329;SDS011;18807;52.434;13.238;2024-02-21T14:57:05;5.00;;;2.55;;
32329;SDS011;18807;52.434;13.238;2024-02-21T15:04:41;8.77;;;2.90;;
32329;SDS011;18807;52.434;13.238;2024-02-21T15:12:15;12.43;;;3.22;;
32329;SDS011;18807;52.434;13.238;2024-02-21T15:19:53;3.53;;;2.15;;
32329;SDS011;18807;52.434;13.238;2024-02-21T15:27:28;4.32;;;2.42;;
32329;SDS011;18807;52.434;13.238;2024-02-21T15:35:04;8.48;;;3.53;;
32329;SDS011;18807;52.434;13.238;2024-02-21T15:42:39;5.72;;;3.08;;
32329;SDS011;18807;52.434;13.238;2024-02-21T15:50:14;7.20;;;3.30;;
32329;SDS011;18807;52.434;13.238;2024-02-21T15:57:48;5.70;;;3.63;;
32329;SDS011;18807;52.434;13.238;2024-02-21T16:05:24;5.30;;;2.73;;
32329;SDS011;18807;52.434;13.238;2024-02-21T16:13:00;7.80;;;3.35;;
32329;SDS011;18807;52.434;13.238;2024-02-21T16:20:35;6.43;;;3.13;;
32329;SDS011;18807;52.434;13.238;2024-02-21T16:28:27;5.40;;;3.05;;
32329;SDS011;18807;52.434;13.238;2024-02-21T16:36:23;6.72;;;2.97;;
32329;SDS011;18807;52.434;13.238;2024-02-21T16:43:59;6.35;;;3.13;;
32329;SDS011;18807;52.434;13.238;2024-02-21T16:51:35;6.93;;;2.80;;
32329;SDS011;18807;52.434;13.238;2024-02-21T16:59:11;11.13;;;3.15;;
32329;SDS011;18807;52.434;13.238;2024-02-21T17:06:47;6.57;;;2.97;;
32329;SDS011;18807;52.434;13.238;2024-02-21T17:14:21;4.05;;;2.22;;
32329;SDS011;18807;52.434;13.238;2024-02-21T17:21:58;5.90;;;2.80;;
32329;SDS011;18807;52.434;13.238;2024-02-21T17:29:32;6.72;;;3.55;;
32329;SDS011;18807;52.434;13.238;2024-02-21T17:37:08;7.80;;;3.10;;
32329;SDS011;18807;52.434;13.238;2024-02-21T17:44:42;10.65;;;4.38;;
32329;SDS011;18807;52.434;13.238;2024-02-21T17:52:20;9.35;;;3.65;;
32329;SDS011;18807;52.434;13.238;2024-02-21T17:59:54;7.53;;;3.55;;
32329;SDS011;18807;52.434;13.238;2024-02-21T18:07:33;5.82;;;4.03;;
32329;SDS011;18807;52.434;13.238;2024-02-21T18:15:07;6.00;;;3.75;;
32329;SDS011;18807;52.434;13.238;2024-02-21T18:22:46;7.05;;;4.10;;
32329;SDS011;18807;52.434;13.238;2024-02-21T18:30:20;5.57;;;3.60;;
32329;SDS011;18807;52.434;13.238;2024-02-21T18:37:55;10.23;;;4.57;;
32329;SDS011;18807;52.434;13.238;2024-02-21T18:45:29;6.60;;;3.50;;
32329;SDS011;18807;52.434;13.238;2024-02-21T18:53:05;8.37;;;4.87;;
32329;SDS011;18807;52.434;13.238;2024-02-21T19:00:39;8.10;;;4.97;;
32329;SDS011;18807;52.434;13.238;2024-02-21T19:08:14;8.40;;;3.92;;
32329;SDS011;18807;52.434;13.238;2024-02-21T19:15:48;8.00;;;4.63;;
32329;SDS011;18807;52.434;13.238;2024-02-21T19:23:24;7.77;;;3.80;;
32329;SDS011;18807;52.434;13.238;2024-02-21T19:30:58;5.38;;;4.25;;
32329;SDS011;18807;52.434;13.238;2024-02-21T19:38:34;8.93;;;3.72;;
32329;SDS011;18807;52.434;13.238;2024-02-21T19:46:08;6.97;;;3.85;;
32329;SDS011;18807;52.434;13.238;2024-02-21T19:53:44;4.47;;;2.85;;
32329;SDS011;18807;52.434;13.238;2024-02-21T20:01:27;10.02;;;4.15;;
32329;SDS011;18807;52.434;13.238;2024-02-21T20:09:05;8.95;;;4.88;;
32329;SDS011;18807;52.434;13.238;2024-02-21T20:16:40;8.43;;;4.18;;
32329;SDS011;18807;52.434;13.238;2024-02-21T20:24:18;8.02;;;4.10;;
32329;SDS011;18807;52.434;13.238;2024-02-21T20:32:10;8.15;;;4.18;;
32329;SDS011;18807;52.434;13.238;2024-02-21T20:39:46;5.80;;;4.13;;
32329;SDS011;18807;52.434;13.238;2024-02-21T20:47:20;8.70;;;4.57;;
32329;SDS011;18807;52.434;13.238;2024-02-21T20:54:57;7.63;;;4.82;;
32329;SDS011;18807;52.434;13.238;2024-02-21T21:02:31;9.18;;;4.53;;
32329;SDS011;18807;52.434;13.238;2024-02-21T21:10:08;7.60;;;4.20;;
32329;SDS011;18807;52.434;13.238;2024-02-21T21:17:42;6.00;;;3.85;;
32329;SDS011;18807;52.434;13.238;2024-02-21T21:25:18;5.80;;;3.80;;
32329;SDS011;18807;52.434;13.238;2024-02-21T21:32:52;7.10;;;3.50;;
32329;SDS011;18807;52.434;13.238;2024-02-21T21:40:28;6.40;;;3.67;;
32329;SDS011;18807;52.434;13.238;2024-02-21T21:48:03;7.55;;;3.35;;
32329;SDS011;18807;52.434;13.238;2024-02-21T21:55:39;4.93;;;3.10;;
32329;SDS011;18807;52.434;13.238;2024-02-21T22:03:16;6.53;;;3.70;;
32329;SDS011;18807;52.434;13.238;2024-02-21T22:10:52;4.57;;;2.78;;
32329;SDS011;18807;52.434;13.238;2024-02-21T22:18:27;8.35;;;4.05;;
32329;SDS011;18807;52.434;13.238;2024-02-21T22:26:04;7.88;;;3.35;;
32329;SDS011;18807;52.434;13.238;2024-02-21T22:33:38;6.22;;;3.20;;
32329;SDS011;18807;52.434;13.238;2024-02-21T22:41:15;8.18;;;2.97;;
32329;SDS011;18807;52.434;13.238;2024-02-21T22:48:50;5.93;;;3.00;;
32329;SDS011;18807;52.434;13.238;2024-02-21T22:56:26;5.43;;;2.50;;
32329;SDS011;18807;52.434;13.238;2024-02-21T23:04:00;8.00;;;3.17;;
32329;SDS011;18807;52.434;13.238;2024-02-21T23:11:36;5.20;;;2.90;;
32329;SDS011;18807;52.434;13.238;2024-02-21T23:19:10;8.73;;;3.20;;
32329;SDS011;18807;52.434;13.238;2024-02-21T23:26:46;5.90;;;2.97;;
32329;SDS011;18807;52.434;13.238;2024-02-21T23:34:20;5.43;;;2.78;;
32329;SDS011;18807;52.434;13.238;2024-02-21T23:41:56;8.73;;;2.67;;
32329;SDS011;18807;52.434;13.238;2024-02-21T23:49:30;4.95;;;2.47;;
32329;SDS011;18807;52.434;13.238;2024-02-21T23:57:06;4.43;;;2.43;;
